createdAt,value
2018-04-19T00:00:02.611Z,6.30
2018-04-19T00:02:30.898Z,6.93
2018-04-19T00:04:59.165Z,6.87
2018-04-19T00:07:27.437Z,6.33
2018-04-19T00:09:55.712Z,6.57
2018-04-19T00:12:23.995Z,6.27
2018-04-19T00:14:52.276Z,6.40
2018-04-19T00:17:20.666Z,7.50
2018-04-19T00:19:48.923Z,6.57
2018-04-19T00:22:17.196Z,6.50
2018-04-19T00:24:45.457Z,6.13
2018-04-19T00:27:14.481Z,6.10
2018-04-19T00:29:42.751Z,6.90
2018-04-19T00:32:11.089Z,7.20
2018-04-19T00:34:39.355Z,6.27
2018-04-19T00:37:08.396Z,6.77
2018-04-19T00:39:36.677Z,6.70
2018-04-19T00:42:04.947Z,6.57
2018-04-19T00:44:33.226Z,7.67
2018-04-19T00:47:01.525Z,7.13
2018-04-19T00:49:29.880Z,7.23
2018-04-19T00:51:58.908Z,7.70
2018-04-19T00:54:27.185Z,7.20
2018-04-19T00:56:55.461Z,7.10
2018-04-19T00:59:23.749Z,7.23
2018-04-19T01:01:52.021Z,6.57
2018-04-19T01:04:20.299Z,7.90
2018-04-19T01:06:49.325Z,6.90
2018-04-19T01:09:18.366Z,7.23
2018-04-19T01:11:46.637Z,7.40
2018-04-19T01:14:14.910Z,7.50
2018-04-19T01:16:43.181Z,6.70
2018-04-19T01:19:11.507Z,6.97
2018-04-19T01:21:39.780Z,7.63
2018-04-19T01:24:08.055Z,7.17
2018-04-19T01:26:36.333Z,7.47
2018-04-19T01:29:04.590Z,7.20
2018-04-19T01:31:32.891Z,6.53
2018-04-19T01:34:01.151Z,7.73
2018-04-19T01:36:29.422Z,8.00
2018-04-19T01:38:57.699Z,6.97
2018-04-19T01:41:25.962Z,6.70
2018-04-19T01:43:54.489Z,7.50
2018-04-19T01:46:23.542Z,7.30
2018-04-19T01:48:51.832Z,7.60
2018-04-19T01:51:20.107Z,8.17
2018-04-19T01:53:48.388Z,7.43
2018-04-19T01:56:16.704Z,7.40
2018-04-19T01:58:44.977Z,6.83
2018-04-19T02:01:13.285Z,6.93
2018-04-19T02:03:41.581Z,7.63
2018-04-19T02:06:09.840Z,7.00
2018-04-19T02:08:38.115Z,7.67
2018-04-19T02:11:06.399Z,8.33
2018-04-19T02:13:34.694Z,6.90
2018-04-19T02:16:02.969Z,8.23
2018-04-19T02:18:31.239Z,6.77
2018-04-19T02:20:59.508Z,7.07
2018-04-19T02:23:27.783Z,7.83
2018-04-19T02:25:56.841Z,7.90
2018-04-19T02:28:25.117Z,7.77
2018-04-19T02:30:53.419Z,7.63
2018-04-19T02:33:21.706Z,7.03
2018-04-19T02:35:50.109Z,7.37
2018-04-19T02:38:18.417Z,7.53
2018-04-19T02:40:47.485Z,7.50
2018-04-19T02:43:15.746Z,8.00
2018-04-19T02:45:44.019Z,7.13
2018-04-19T02:48:12.298Z,7.90
2018-04-19T02:50:40.632Z,6.73
2018-04-19T02:53:08.915Z,7.17
2018-04-19T02:55:37.202Z,7.30
2018-04-19T02:58:05.480Z,7.33
2018-04-19T03:00:33.752Z,6.90
2018-04-19T03:03:02.014Z,7.97
2018-04-19T03:05:30.303Z,6.60
2018-04-19T03:07:58.616Z,8.47
2018-04-19T03:10:26.879Z,7.17
2018-04-19T03:12:55.172Z,7.67
2018-04-19T03:15:23.458Z,7.13
2018-04-19T03:17:51.810Z,8.00
2018-04-19T03:20:20.108Z,7.67
2018-04-19T03:22:48.378Z,7.07
2018-04-19T03:25:16.652Z,7.27
2018-04-19T03:27:44.927Z,7.80
2018-04-19T03:30:13.228Z,7.20
2018-04-19T03:32:41.532Z,7.23
2018-04-19T03:35:09.837Z,7.30
2018-04-19T03:37:38.115Z,7.97
2018-04-19T03:40:06.381Z,7.67
2018-04-19T03:42:34.680Z,8.77
2018-04-19T03:45:03.008Z,8.23
2018-04-19T03:47:31.288Z,8.00
2018-04-19T03:50:00.334Z,7.97
2018-04-19T03:52:28.631Z,9.43
2018-04-19T03:54:57.703Z,8.07
2018-04-19T03:57:26.010Z,10.13
2018-04-19T03:59:55.068Z,6.70
2018-04-19T04:02:23.355Z,7.53
2018-04-19T04:04:51.650Z,7.80
2018-04-19T04:07:19.913Z,9.73
2018-04-19T04:09:48.194Z,9.20
2018-04-19T04:12:16.453Z,7.47
2018-04-19T04:14:44.743Z,8.93
2018-04-19T04:17:25.113Z,8.10
2018-04-19T04:20:05.435Z,9.07
2018-04-19T04:22:45.728Z,7.73
2018-04-19T04:25:14.774Z,9.00
2018-04-19T04:27:43.053Z,8.50
2018-04-19T04:30:11.321Z,7.50
2018-04-19T04:32:39.598Z,8.40
2018-04-19T04:35:07.860Z,7.63
2018-04-19T04:37:36.123Z,7.40
2018-04-19T04:40:05.173Z,8.17
2018-04-19T04:42:33.529Z,8.00
2018-04-19T04:45:02.499Z,8.73
2018-04-19T04:47:30.775Z,9.13
2018-04-19T04:49:59.220Z,10.57
2018-04-19T04:52:27.589Z,9.03
2018-04-19T04:54:55.888Z,8.67
2018-04-19T04:57:24.929Z,9.40
2018-04-19T04:59:53.220Z,8.30
2018-04-19T05:02:21.876Z,9.33
2018-04-19T05:04:50.162Z,9.43
2018-04-19T05:07:18.443Z,7.53
2018-04-19T05:09:46.731Z,8.93
2018-04-19T05:12:14.992Z,9.23
2018-04-19T05:14:43.273Z,8.40
2018-04-19T05:17:11.577Z,8.43
2018-04-19T05:19:39.860Z,7.53
2018-04-19T05:22:08.154Z,9.80
2018-04-19T05:24:37.192Z,9.47
2018-04-19T05:27:05.495Z,9.17
2018-04-19T05:29:33.784Z,8.57
2018-04-19T05:32:02.219Z,8.00
2018-04-19T05:34:30.629Z,7.30
2018-04-19T05:36:58.890Z,8.40
2018-04-19T05:39:27.162Z,8.50
2018-04-19T05:41:56.229Z,8.07
2018-04-19T05:44:24.538Z,8.00
2018-04-19T05:46:52.860Z,7.93
2018-04-19T05:49:21.103Z,7.83
2018-04-19T05:51:49.385Z,7.97
2018-04-19T05:54:17.771Z,8.13
2018-04-19T05:56:46.038Z,8.60
2018-04-19T05:59:14.339Z,8.30
2018-04-19T06:01:43.388Z,8.50
2018-04-19T06:04:11.680Z,7.80
2018-04-19T06:06:40.046Z,7.97
2018-04-19T06:09:08.392Z,7.60
2018-04-19T06:11:37.392Z,8.53
2018-04-19T06:14:05.706Z,7.90
2018-04-19T06:16:34.071Z,7.40
2018-04-19T06:19:02.359Z,7.90
2018-04-19T06:21:30.644Z,7.10
2018-04-19T06:23:58.967Z,7.90
2018-04-19T06:26:28.059Z,7.47
2018-04-19T06:28:56.432Z,7.50
2018-04-19T06:31:25.056Z,7.73
2018-04-19T06:33:53.354Z,8.30
2018-04-19T06:36:21.626Z,7.50
2018-04-19T06:38:49.912Z,8.07
2018-04-19T06:41:18.182Z,8.53
2018-04-19T06:43:46.455Z,7.63
2018-04-19T06:46:14.751Z,7.90
2018-04-19T06:48:43.099Z,7.97
2018-04-19T06:51:11.515Z,7.40
2018-04-19T06:53:40.698Z,7.70
2018-04-19T06:56:08.998Z,7.80
2018-04-19T06:58:38.051Z,7.60
2018-04-19T07:01:06.393Z,7.07
2018-04-19T07:03:34.699Z,7.80
2018-04-19T07:06:03.019Z,7.90
2018-04-19T07:08:31.280Z,6.60
2018-04-19T07:11:00.328Z,7.30
2018-04-19T07:13:28.622Z,7.57
2018-04-19T07:15:56.905Z,7.50
2018-04-19T07:18:25.201Z,6.93
2018-04-19T07:20:53.484Z,7.93
2018-04-19T07:23:21.765Z,7.70
2018-04-19T07:25:50.091Z,8.10
2018-04-19T07:28:19.199Z,7.40
2018-04-19T07:30:47.963Z,7.53
2018-04-19T07:33:16.237Z,7.90
2018-04-19T07:35:44.569Z,8.07
2018-04-19T07:38:13.628Z,7.50
2018-04-19T07:40:41.999Z,8.40
2018-04-19T07:43:10.282Z,7.97
2018-04-19T07:45:38.582Z,7.27
2018-04-19T07:48:06.889Z,8.20
2018-04-19T07:50:36.807Z,7.90
2018-04-19T07:53:05.912Z,7.80
2018-04-19T07:55:34.227Z,7.53
2018-04-19T07:58:02.589Z,8.40
2018-04-19T08:00:30.878Z,7.30
2018-04-19T08:02:59.281Z,6.70
2018-04-19T08:05:27.607Z,7.60
2018-04-19T08:07:56.642Z,7.47
2018-04-19T08:10:24.958Z,7.10
2018-04-19T08:12:53.995Z,8.10
2018-04-19T08:15:22.286Z,7.23
2018-04-19T08:17:50.604Z,7.10
2018-04-19T08:20:19.645Z,6.93
2018-04-19T08:22:48.029Z,7.30
2018-04-19T08:25:16.299Z,7.10
2018-04-19T08:27:44.933Z,7.20
2018-04-19T08:30:14.025Z,7.43
2018-04-19T08:32:43.083Z,6.83
2018-04-19T08:35:12.173Z,6.70
2018-04-19T08:37:40.542Z,6.60
2018-04-19T08:40:09.037Z,6.97
2018-04-19T08:42:37.341Z,7.53
2018-04-19T08:45:06.659Z,6.70
2018-04-19T08:47:34.940Z,7.00
2018-04-19T08:50:03.266Z,6.40
2018-04-19T08:52:31.554Z,6.40
2018-04-19T08:55:00.619Z,6.87
2018-04-19T08:57:28.906Z,6.17
2018-04-19T08:59:57.230Z,6.80
2018-04-19T09:02:26.286Z,7.10
2018-04-19T09:04:54.567Z,5.60
2018-04-19T09:07:22.892Z,7.40
2018-04-19T09:09:51.212Z,6.20
2018-04-19T09:12:20.278Z,6.20
2018-04-19T09:14:48.547Z,6.63
2018-04-19T09:17:16.827Z,6.10
2018-04-19T09:19:45.280Z,7.33
2018-04-19T09:22:14.334Z,6.80
2018-04-19T09:24:42.631Z,6.90
2018-04-19T09:27:10.912Z,6.33
2018-04-19T09:29:39.966Z,6.57
2018-04-19T09:32:09.198Z,6.77
2018-04-19T09:34:38.262Z,6.07
2018-04-19T09:37:06.560Z,6.13
2018-04-19T09:39:35.653Z,6.53
2018-04-19T09:42:04.107Z,6.20
2018-04-19T09:44:32.954Z,5.30
2018-04-19T09:47:01.996Z,5.77
2018-04-19T09:49:31.348Z,6.90
2018-04-19T09:51:59.664Z,6.13
2018-04-19T09:54:27.945Z,5.70
2018-04-19T09:56:56.324Z,5.27
2018-04-19T09:59:24.705Z,5.83
2018-04-19T10:01:52.987Z,6.30
2018-04-19T10:04:27.169Z,5.73
2018-04-19T10:06:56.423Z,5.20
2018-04-19T10:09:24.783Z,5.77
2018-04-19T10:11:53.232Z,5.27
2018-04-19T10:14:21.552Z,5.63
2018-04-19T10:16:50.747Z,5.07
2018-04-19T10:19:19.718Z,4.77
2018-04-19T10:21:48.140Z,4.77
2018-04-19T10:24:16.467Z,4.83
2018-04-19T10:26:44.756Z,4.57
2018-04-19T10:29:13.086Z,4.63
2018-04-19T10:31:42.249Z,4.40
2018-04-19T10:34:10.598Z,5.73
2018-04-19T10:36:38.886Z,5.63
2018-04-19T10:39:08.884Z,6.33
2018-04-19T10:41:37.145Z,5.97
2018-04-19T10:44:05.470Z,6.80
2018-04-19T10:46:34.192Z,5.27
2018-04-19T10:49:02.598Z,5.87
2018-04-19T10:51:30.875Z,6.23
2018-04-19T10:53:59.527Z,7.43
2018-04-19T10:56:27.825Z,7.70
2018-04-19T10:58:56.149Z,7.70
2018-04-19T11:01:24.461Z,7.10
2018-04-19T11:03:52.797Z,6.57
2018-04-19T11:36:48.081Z,5.93
2018-04-19T11:39:16.532Z,6.23
2018-04-19T11:41:44.929Z,5.33
2018-04-19T11:44:14.227Z,4.90
2018-04-19T11:46:42.510Z,5.70
2018-04-19T11:49:10.886Z,5.60
2018-04-19T11:51:39.166Z,5.20
2018-04-19T11:54:07.479Z,5.70
2018-04-19T11:56:36.516Z,5.03
2018-04-19T11:59:05.351Z,5.00
2018-04-19T12:01:33.659Z,4.73
2018-04-19T12:04:02.235Z,4.30
2018-04-19T12:06:30.501Z,4.60
2018-04-19T12:08:58.833Z,4.67
2018-04-19T12:11:27.153Z,4.40
2018-04-19T12:13:56.201Z,4.37
2018-04-19T12:16:24.487Z,7.33
2018-04-19T12:18:52.764Z,4.77
2018-04-19T12:21:21.119Z,4.67
2018-04-19T12:23:49.456Z,4.60
2018-04-19T12:26:19.535Z,4.53
2018-04-19T12:28:47.814Z,5.40
2018-04-19T12:31:16.955Z,3.70
2018-04-19T12:33:45.294Z,4.07
2018-04-19T12:36:13.619Z,3.90
2018-04-19T12:38:41.984Z,3.60
2018-04-19T12:41:11.011Z,3.90
2018-04-19T12:43:39.341Z,4.40
2018-04-19T12:46:07.629Z,3.43
2018-04-19T12:48:35.950Z,3.80
2018-04-19T12:51:04.239Z,3.73
2018-04-19T12:53:32.600Z,4.07
2018-04-19T12:56:00.877Z,3.70
2018-04-19T12:58:29.179Z,3.80
2018-04-19T13:00:59.561Z,3.43
2018-04-19T13:03:27.882Z,3.83
2018-04-19T13:05:57.674Z,3.23
2018-04-19T13:08:26.020Z,3.40
2018-04-19T13:10:54.290Z,3.20
2018-04-19T13:13:22.570Z,3.27
2018-04-19T13:15:50.867Z,3.40
2018-04-19T13:18:19.137Z,3.70
2018-04-19T13:20:47.458Z,3.00
2018-04-19T13:23:16.515Z,3.23
2018-04-19T13:25:45.000Z,3.60
2018-04-19T13:28:14.231Z,3.40
2018-04-19T13:30:42.604Z,3.63
2018-04-19T13:33:13.210Z,3.10
2018-04-19T13:35:41.652Z,3.77
2018-04-19T13:38:09.985Z,3.10
2018-04-19T13:40:38.271Z,2.47
2018-04-19T13:43:07.417Z,3.13
2018-04-19T13:45:35.922Z,2.80
2018-04-19T13:48:05.266Z,3.03
2018-04-19T13:50:34.317Z,2.70
2018-04-19T13:53:02.596Z,2.80
2018-04-19T13:55:30.934Z,2.73
2018-04-19T13:58:00.685Z,2.90
2018-04-19T14:00:29.070Z,2.67
2018-04-19T14:02:57.356Z,2.83
2018-04-19T14:05:25.644Z,2.70
2018-04-19T14:07:53.924Z,2.67
2018-04-19T14:10:22.193Z,2.30
2018-04-19T14:12:50.518Z,2.70
2018-04-19T14:15:18.790Z,2.60
2018-04-19T14:17:47.895Z,2.33
2018-04-19T14:20:16.301Z,2.87
2018-04-19T14:22:44.618Z,2.40
2018-04-19T14:25:13.758Z,2.60
2018-04-19T14:27:42.748Z,2.53
2018-04-19T14:30:11.019Z,2.17
2018-04-19T14:32:39.313Z,2.90
2018-04-19T14:35:07.601Z,2.70
2018-04-19T14:37:35.965Z,2.90
2018-04-19T14:40:04.296Z,2.10
2018-04-19T14:42:33.325Z,2.57
2018-04-19T14:45:01.624Z,2.53
2018-04-19T14:47:29.906Z,2.80
2018-04-19T14:49:58.200Z,2.30
2018-04-19T14:52:27.683Z,2.00
2018-04-19T14:54:56.035Z,2.33
2018-04-19T14:57:24.345Z,1.97
2018-04-19T14:59:52.638Z,2.07
2018-04-19T15:02:20.930Z,2.27
2018-04-19T15:04:49.969Z,1.87
2018-04-19T15:07:18.440Z,2.07
2018-04-19T15:09:47.569Z,1.90
2018-04-19T15:12:15.839Z,1.70
2018-04-19T15:14:45.012Z,2.43
2018-04-19T15:17:13.272Z,1.93
2018-04-19T15:19:41.575Z,1.93
2018-04-19T15:22:09.864Z,1.93
2018-04-19T15:24:38.156Z,2.10
2018-04-19T15:27:06.467Z,2.00
2018-04-19T15:29:34.739Z,3.70
2018-04-19T15:32:04.175Z,2.07
2018-04-19T15:34:32.533Z,1.73
2018-04-19T15:37:00.969Z,1.67
2018-04-19T15:39:29.361Z,2.67
2018-04-19T15:41:57.925Z,2.10
2018-04-19T15:44:27.737Z,1.60
2018-04-19T15:46:56.019Z,1.87
2018-04-19T15:49:24.476Z,2.00
2018-04-19T15:51:52.846Z,2.97
2018-04-19T15:54:21.920Z,2.40
2018-04-19T15:56:50.195Z,2.97
2018-04-19T15:59:18.492Z,2.50
2018-04-19T16:01:46.784Z,2.63
2018-04-19T16:04:15.093Z,2.20
2018-04-19T16:06:43.350Z,2.70
2018-04-19T16:09:11.715Z,1.73
2018-04-19T16:11:40.088Z,2.07
2018-04-19T16:14:09.187Z,2.37
2018-04-19T16:16:37.486Z,2.17
2018-04-19T16:19:05.851Z,2.70
2018-04-19T16:21:34.160Z,2.43
2018-04-19T16:24:02.500Z,2.50
2018-04-19T16:26:30.768Z,2.50
2018-04-19T16:28:59.059Z,2.50
2018-04-19T16:31:27.439Z,2.30
2018-04-19T16:33:55.805Z,2.87
2018-04-19T16:36:24.153Z,2.93
2018-04-19T16:38:52.551Z,3.57
2018-04-19T16:41:20.914Z,2.40
2018-04-19T16:43:49.312Z,2.50
2018-04-19T16:46:17.770Z,2.20
2018-04-19T16:48:46.058Z,2.17
2018-04-19T16:51:14.346Z,2.20
2018-04-19T16:53:42.623Z,2.60
2018-04-19T16:56:10.891Z,2.33
2018-04-19T16:58:39.225Z,2.63
2018-04-19T17:01:07.719Z,2.57
2018-04-19T17:03:36.585Z,1.70
2018-04-19T17:06:05.668Z,2.20
2018-04-19T17:08:33.886Z,1.83
2018-04-19T17:11:02.168Z,1.90
2018-04-19T17:13:30.493Z,2.10
2018-04-19T17:15:58.769Z,3.70
2018-04-19T19:25:52.761Z,5.90
2018-04-19T20:56:33.498Z,7.00
2018-04-19T20:59:02.001Z,6.70
2018-04-19T21:01:31.091Z,6.30
2018-04-19T21:03:59.578Z,6.90
2018-04-19T21:06:27.853Z,7.27
2018-04-19T21:08:56.147Z,13.70
2018-04-19T21:11:25.341Z,7.07
2018-04-19T21:13:53.737Z,7.40
2018-04-19T21:16:22.863Z,7.03
2018-04-19T21:18:51.228Z,7.30
2018-04-19T21:21:19.497Z,8.50
2018-04-19T21:23:47.778Z,8.77
2018-04-19T21:26:16.055Z,7.60
2018-04-19T21:28:44.330Z,8.23
2018-04-19T21:31:12.640Z,7.20
2018-04-19T21:33:40.928Z,7.40
2018-04-19T21:36:09.217Z,7.60
2018-04-19T21:38:38.290Z,10.60
2018-04-19T21:41:06.594Z,8.30
2018-04-19T21:43:35.783Z,9.17
2018-04-19T21:46:04.858Z,8.90
2018-04-19T21:48:33.195Z,8.10
2018-04-19T21:51:01.504Z,6.87
2018-04-19T21:53:29.940Z,7.80
2018-04-19T21:55:58.224Z,7.47
2018-04-19T21:58:26.632Z,6.00
2018-04-19T22:00:54.913Z,6.30
2018-04-19T22:03:23.209Z,6.90
2018-04-19T22:05:51.559Z,8.03
2018-04-19T22:08:19.833Z,6.00
2018-04-19T22:10:48.114Z,6.83
2018-04-19T22:13:16.390Z,6.90
2018-04-19T22:15:44.769Z,7.03
2018-04-19T22:18:13.070Z,6.50
2018-04-19T22:20:41.373Z,7.33
2018-04-19T22:23:10.433Z,8.10
2018-04-19T22:28:02.810Z,7.40
2018-04-19T22:30:32.171Z,7.10
2018-04-19T22:33:00.468Z,8.03
2018-04-19T22:35:28.754Z,7.63
2018-04-19T22:37:57.867Z,7.10
2018-04-19T22:40:27.292Z,8.57
2018-04-19T22:42:55.580Z,8.00
2018-04-19T22:45:23.863Z,8.07
2018-04-19T22:47:52.192Z,7.87
2018-04-19T22:50:21.243Z,7.17
2018-04-19T22:52:49.570Z,8.00
2018-04-19T22:55:18.635Z,6.97
2018-04-19T22:57:46.974Z,7.13
2018-04-19T23:00:15.259Z,7.67
2018-04-19T23:02:43.549Z,7.90
2018-04-19T23:05:13.757Z,7.50
2018-04-19T23:07:41.930Z,7.10
2018-04-19T23:10:10.133Z,7.43
2018-04-19T23:12:38.951Z,8.73
2018-04-19T23:15:07.159Z,8.30
2018-04-19T23:17:35.633Z,7.43
2018-04-19T23:20:03.867Z,8.10
2018-04-19T23:22:35.154Z,8.43
2018-04-19T23:25:04.426Z,8.10
2018-04-19T23:27:32.916Z,7.30
2018-04-19T23:30:01.960Z,7.57
2018-04-19T23:32:30.335Z,7.00
2018-04-19T23:34:58.606Z,7.70
2018-04-19T23:37:26.898Z,7.60
2018-04-19T23:39:55.190Z,8.27
2018-04-19T23:42:24.297Z,8.33
2018-04-19T23:44:52.554Z,7.40
2018-04-19T23:47:20.836Z,7.07
2018-04-19T23:49:49.109Z,8.93
2018-04-19T23:52:18.173Z,7.30
2018-04-19T23:54:46.443Z,8.40
2018-04-19T23:57:14.737Z,7.57
2018-04-19T23:59:43.010Z,7.40
